»·PEaware :: N2822D KRNM-KVCB

N2822D :: KRNM-KVCB

FLIGHT INFORMATION

Flight Status: Arrived
Operator: Privately registered:
United States
More flights under this callsign
Pilot: Keith B. (30325)
Aircraft: BEECH AIRCRAFT BARON
(BE58)
More flights by this aircraft type
Origin: KRNM Ramona
United States
Destination: KVCB Nut Tree
United States
More flights between these airports :: More routes between these airports
Route: KRNM BONDO OCN VPOCN VPSMP DANAH SLI DODGR JEFFY GMN AVE PXN RBLEW GIFME SAC KEDU KVCB
File this flight plan on PilotEdge
Remarks:
Altitude:
(Current/Filed)
10,500ft
Speed:
(Current/Filed)
200kts
Departed: 13-Nov-20 07:09 AM
Arrived: 13-Nov-20 09:32 AM
Distance/Time
Traveled:
404nm/2:23
Distance/Time
To Go:
Arrived

Flight Plot

Page will automatically refresh every two minutes.

Flight plan parsing failed; only flown route is shown


Map Options




Map Legend


Flown Route
Filed Route
Departure Airport
Arrival Airport
Navaid (VOR, NDB)
Fix

Horizontal Profiles

Position Reports

Time Latitude Longitude Heading Altitude Ground
Speed
13-Nov-20 06:59 33.037222 -116.910141 188 1395ft 0kts
13-Nov-20 07:00 33.037222 -116.910141 188 1395ft 0kts
13-Nov-20 07:01 33.037222 -116.910141 188 1395ft 0kts
13-Nov-20 07:02 33.037222 -116.910141 188 1395ft 0kts
13-Nov-20 07:03 33.037222 -116.910141 188 1395ft 0kts
13-Nov-20 07:04 33.037014 -116.909279 60 1396ft 10kts
13-Nov-20 07:05 33.037153 -116.908076 68 1394ft 0kts
13-Nov-20 07:06 33.037153 -116.908076 68 1394ft 0kts
13-Nov-20 07:07 33.037471 -116.907402 8 1396ft 3kts
13-Nov-20 07:08 33.038767 -116.912801 282 1393ft 98kts
13-Nov-20 07:09 33.051246 -116.948310 333 2775ft 134kts
13-Nov-20 07:10 33.091043 -116.955562 0 3997ft 151kts
13-Nov-20 07:11 33.129481 -116.980925 326 4539ft 178kts
13-Nov-20 07:12 33.173604 -117.013318 327 4536ft 191kts
13-Nov-20 07:13 33.202461 -117.062588 271 4512ft 193kts
13-Nov-20 07:14 33.205225 -117.126286 278 4500ft 193kts
13-Nov-20 07:15 33.212962 -117.189813 278 4500ft 193kts
13-Nov-20 07:16 33.220486 -117.253188 278 4492ft 193kts
13-Nov-20 07:17 33.227994 -117.316931 278 4491ft 194kts
13-Nov-20 07:18 33.235517 -117.380791 278 4485ft 193kts
13-Nov-20 07:19 33.240008 -117.444193 280 4648ft 184kts
13-Nov-20 07:20 33.269793 -117.486558 318 5550ft 163kts
13-Nov-20 07:21 33.301767 -117.523135 313 6444ft 158kts
13-Nov-20 07:22 33.336128 -117.563787 314 6490ft 183kts
13-Nov-20 07:23 33.372974 -117.607462 314 6485ft 188kts
13-Nov-20 07:24 33.414806 -117.643696 326 6824ft 175kts
13-Nov-20 07:25 33.451960 -117.674272 322 7841ft 151kts
13-Nov-20 07:26 33.485537 -117.702722 317 8521ft 158kts
13-Nov-20 07:27 33.519039 -117.743273 313 8523ft 179kts
13-Nov-20 07:28 33.555237 -117.785737 313 8556ft 181kts
13-Nov-20 07:29 33.590401 -117.827149 313 9085ft 178kts
13-Nov-20 07:30 33.625475 -117.868444 313 9606ft 175kts
13-Nov-20 07:31 33.659900 -117.909060 314 10092ft 171kts
13-Nov-20 07:32 33.693580 -117.948800 314 10490ft 172kts
13-Nov-20 07:33 33.729713 -117.991502 314 10497ft 188kts
13-Nov-20 07:34 33.767151 -118.036494 313 10493ft 192kts
13-Nov-20 07:35 33.810337 -118.072857 337 10471ft 195kts
13-Nov-20 07:36 33.859007 -118.099042 332 10458ft 195kts
13-Nov-20 07:37 33.904698 -118.125374 332 10456ft 195kts
13-Nov-20 07:38 33.950172 -118.151226 333 10449ft 195kts
13-Nov-20 07:39 33.999138 -118.178485 333 10447ft 195kts
13-Nov-20 07:40 34.048368 -118.205999 333 10440ft 195kts
13-Nov-20 07:41 34.097846 -118.233175 334 10437ft 195kts
13-Nov-20 07:42 34.146480 -118.260192 333 10511ft 194kts
13-Nov-20 07:43 34.195438 -118.287675 333 10506ft 195kts
13-Nov-20 07:44 34.244799 -118.315409 333 10500ft 196kts
13-Nov-20 07:45 34.294080 -118.343135 333 10496ft 195kts
13-Nov-20 07:46 34.343372 -118.370905 333 10491ft 195kts
13-Nov-20 07:47 34.392751 -118.398739 333 10486ft 195kts
13-Nov-20 07:48 34.441989 -118.426519 333 10488ft 195kts
13-Nov-20 07:49 34.491116 -118.454174 333 10487ft 195kts
13-Nov-20 07:50 34.540351 -118.481981 333 10480ft 195kts
13-Nov-20 07:51 34.589509 -118.509852 333 10476ft 195kts
13-Nov-20 07:52 34.638555 -118.537876 332 10471ft 194kts
13-Nov-20 07:53 34.687546 -118.565795 333 10468ft 194kts
13-Nov-20 07:54 34.736547 -118.593709 332 10468ft 194kts
13-Nov-20 07:55 34.760585 -118.647124 275 10473ft 191kts
13-Nov-20 07:56 34.771468 -118.709851 285 10549ft 190kts
13-Nov-20 07:57 34.784968 -118.772481 285 10553ft 191kts
13-Nov-20 07:58 34.798350 -118.835133 285 10552ft 191kts
13-Nov-20 07:59 34.823047 -118.890870 317 10521ft 193kts
13-Nov-20 08:00 34.860971 -118.936927 311 10519ft 192kts
13-Nov-20 08:01 34.897430 -118.984619 311 10516ft 192kts
13-Nov-20 08:02 34.933798 -119.032271 311 10510ft 192kts
13-Nov-20 08:03 34.970151 -119.079949 311 10506ft 192kts
13-Nov-20 08:04 35.006599 -119.127790 311 10500ft 192kts
13-Nov-20 08:05 35.042781 -119.175318 311 10502ft 191kts
13-Nov-20 08:06 35.079035 -119.223080 311 10496ft 191kts
13-Nov-20 08:07 35.115098 -119.270617 311 10555ft 189kts
13-Nov-20 08:08 35.151189 -119.318248 311 10551ft 191kts
13-Nov-20 08:10 35.187346 -119.366055 311 10544ft 192kts
13-Nov-20 08:11 35.223452 -119.413886 311 10540ft 191kts
13-Nov-20 08:12 35.259609 -119.461799 311 10535ft 191kts
13-Nov-20 08:13 35.295639 -119.509634 311 10530ft 191kts
13-Nov-20 08:14 35.331703 -119.557614 311 10526ft 191kts
13-Nov-20 08:15 35.367708 -119.605549 311 10520ft 191kts
13-Nov-20 08:16 35.403685 -119.653515 311 10537ft 190kts
13-Nov-20 08:17 35.439371 -119.701178 311 10575ft 191kts
13-Nov-20 08:18 35.475300 -119.749198 311 10570ft 191kts
13-Nov-20 08:19 35.511376 -119.797511 310 10566ft 192kts
13-Nov-20 08:20 35.547435 -119.845898 310 10560ft 192kts
13-Nov-20 08:21 35.583434 -119.894219 311 10555ft 192kts
13-Nov-20 08:22 35.619697 -119.942731 311 10550ft 194kts
13-Nov-20 08:23 35.657080 -119.989887 324 10543ft 194kts
13-Nov-20 08:24 35.704525 -120.022034 326 10543ft 195kts
13-Nov-20 08:25 35.751281 -120.056559 325 10531ft 197kts
13-Nov-20 08:25 35.790406 -120.085436 327 10529ft 196kts
13-Nov-20 08:27 35.844984 -120.125960 327 10530ft 196kts
13-Nov-20 08:27 35.884538 -120.155214 327 10203ft 203kts
13-Nov-20 08:29 35.940470 -120.196708 327 9365ft 200kts
13-Nov-20 08:29 35.980297 -120.226427 328 8736ft 202kts
13-Nov-20 08:30 36.028468 -120.262212 327 7966ft 203kts
13-Nov-20 08:31 36.076680 -120.298120 328 7158ft 202kts
13-Nov-20 08:32 36.124240 -120.333463 328 6578ft 198kts
13-Nov-20 08:33 36.172763 -120.369690 328 6574ft 207kts
13-Nov-20 08:34 36.222102 -120.406643 327 6592ft 207kts
13-Nov-20 08:35 36.271518 -120.443673 328 6580ft 208kts
13-Nov-20 08:36 36.320869 -120.480793 328 6589ft 207kts
13-Nov-20 08:37 36.370176 -120.518155 327 6556ft 208kts
13-Nov-20 08:38 36.419719 -120.555379 328 6652ft 206kts
13-Nov-20 08:39 36.469105 -120.592820 328 6562ft 205kts
13-Nov-20 08:40 36.517463 -120.629199 328 6527ft 200kts
13-Nov-20 08:41 36.564976 -120.665182 327 6564ft 199kts
13-Nov-20 08:42 36.612399 -120.701211 328 6226ft 198kts
13-Nov-20 08:43 36.658976 -120.736641 327 5745ft 196kts
13-Nov-20 08:44 36.705688 -120.772072 328 5226ft 196kts
13-Nov-20 08:45 36.754344 -120.803137 333 4686ft 197kts
13-Nov-20 08:46 36.801927 -120.831991 333 4570ft 183kts
13-Nov-20 08:47 36.847447 -120.859668 333 4567ft 180kts
13-Nov-20 08:48 36.892381 -120.887042 332 4563ft 180kts
13-Nov-20 08:49 36.937479 -120.914662 333 4560ft 179kts
13-Nov-20 08:50 36.982634 -120.942343 332 4559ft 188kts
13-Nov-20 08:51 37.031606 -120.972822 332 4552ft 204kts
13-Nov-20 08:52 37.082490 -121.004057 333 4625ft 206kts
13-Nov-20 08:53 37.133564 -121.035243 332 4667ft 209kts
13-Nov-20 08:54 37.184573 -121.066684 332 4627ft 197kts
13-Nov-20 08:55 37.231362 -121.095475 332 4579ft 182kts
13-Nov-20 08:56 37.276095 -121.122993 331 4570ft 177kts
13-Nov-20 08:57 37.320589 -121.150573 333 4572ft 181kts
13-Nov-20 08:58 37.366517 -121.178892 331 4558ft 184kts
13-Nov-20 08:59 37.412240 -121.207194 331 4555ft 183kts
13-Nov-20 09:00 37.457807 -121.235421 331 4552ft 183kts
13-Nov-20 09:01 37.503832 -121.263388 333 4539ft 184kts
13-Nov-20 09:02 37.549674 -121.291467 331 4528ft 183kts
13-Nov-20 09:03 37.595475 -121.319972 331 4529ft 183kts
13-Nov-20 09:04 37.641338 -121.348582 331 4523ft 183kts
13-Nov-20 09:05 37.687128 -121.377148 331 4506ft 184kts
13-Nov-20 09:06 37.733638 -121.406233 330 4550ft 188kts
13-Nov-20 09:07 37.780950 -121.435810 331 4504ft 191kts
13-Nov-20 09:08 37.828451 -121.465609 331 4506ft 190kts
13-Nov-20 09:09 37.876109 -121.495511 330 4491ft 191kts
13-Nov-20 09:10 37.926303 -121.517302 349 4491ft 194kts
13-Nov-20 09:11 37.979307 -121.529725 345 4488ft 194kts
13-Nov-20 09:12 38.032237 -121.543365 345 4479ft 195kts
13-Nov-20 09:13 38.085596 -121.557083 345 4476ft 196kts
13-Nov-20 09:14 38.138618 -121.570826 345 4559ft 194kts
13-Nov-20 09:15 38.191856 -121.584259 346 4558ft 196kts
13-Nov-20 09:16 38.246336 -121.580072 5 4568ft 199kts
13-Nov-20 09:17 38.301621 -121.572240 3 4547ft 200kts
13-Nov-20 09:18 38.356869 -121.564498 4 4531ft 200kts
13-Nov-20 09:19 38.412186 -121.556528 4 4510ft 201kts
13-Nov-20 09:20 38.460376 -121.576933 297 4472ft 189kts
13-Nov-20 09:21 38.476684 -121.641286 292 3933ft 194kts
13-Nov-20 09:22 38.499590 -121.701687 291 3479ft 184kts
13-Nov-20 09:23 38.521921 -121.761613 291 3101ft 189kts
13-Nov-20 09:24 38.515507 -121.823263 247 2695ft 182kts
13-Nov-20 09:25 38.497910 -121.883285 247 2524ft 175kts
13-Nov-20 09:26 38.481691 -121.938373 247 2281ft 157kts
13-Nov-20 09:27 38.462422 -121.987163 205 1707ft 153kts
13-Nov-20 09:28 38.438837 -121.955494 111 954ft 141kts
13-Nov-20 09:29 38.416664 -121.928508 196 902ft 114kts
13-Nov-20 09:30 38.391328 -121.950195 211 293ft 91kts
13-Nov-20 09:31 38.378088 -121.961350 215 115ft 14kts
13-Nov-20 09:32 38.374962 -121.961765 123 114ft 12kts
13-Nov-20 09:33 38.375103 -121.960691 34 110ft 0kts

Navigation Log

Ident Type
Flight plan parsing failed, navigation log unavailable